sensor_id;sensor_type;location;lat;lon;timestamp;temperature;humidity
10660;DHT22;5378;53.206;13.316;2023-04-16T00:01:46;9.40;99.90
10660;DHT22;5378;53.206;13.316;2023-04-16T00:04:33;9.30;99.90
10660;DHT22;5378;53.206;13.316;2023-04-16T00:07:20;9.40;99.90
10660;DHT22;5378;53.206;13.316;2023-04-16T00:10:07;9.30;99.90
10660;DHT22;5378;53.206;13.316;2023-04-16T00:12:56;9.30;99.90
10660;DHT22;5378;53.206;13.316;2023-04-16T00:15:43;9.40;99.90
10660;DHT22;5378;53.206;13.316;2023-04-16T00:18:31;9.50;99.90
10660;DHT22;5378;53.206;13.316;2023-04-16T00:21:18;9.40;99.90
10660;DHT22;5378;53.206;13.316;2023-04-16T00:24:05;9.50;99.90
10660;DHT22;5378;53.206;13.316;2023-04-16T00:26:52;9.40;99.90
10660;DHT22;5378;53.206;13.316;2023-04-16T00:29:40;9.40;99.90
10660;DHT22;5378;53.206;13.316;2023-04-16T00:32:27;9.40;99.90
10660;DHT22;5378;53.206;13.316;2023-04-16T00:35:14;9.50;99.90
10660;DHT22;5378;53.206;13.316;2023-04-16T00:38:01;9.50;99.90
10660;DHT22;5378;53.206;13.316;2023-04-16T00:40:48;9.60;99.90
10660;DHT22;5378;53.206;13.316;2023-04-16T00:43:36;9.30;99.90
10660;DHT22;5378;53.206;13.316;2023-04-16T00:46:25;9.20;99.90
10660;DHT22;5378;53.206;13.316;2023-04-16T00:49:12;9.10;99.90
10660;DHT22;5378;53.206;13.316;2023-04-16T00:51:59;9.20;99.90
10660;DHT22;5378;53.206;13.316;2023-04-16T00:54:47;9.10;99.90
10660;DHT22;5378;53.206;13.316;2023-04-16T00:57:35;9.10;99.90
10660;DHT22;5378;53.206;13.316;2023-04-16T01:00:22;9.10;99.90
10660;DHT22;5378;53.206;13.316;2023-04-16T01:03:10;9.00;99.90
10660;DHT22;5378;53.206;13.316;2023-04-16T01:05:57;8.80;99.90
10660;DHT22;5378;53.206;13.316;2023-04-16T01:08:45;8.80;99.90
10660;DHT22;5378;53.206;13.316;2023-04-16T01:11:32;8.80;99.90
10660;DHT22;5378;53.206;13.316;2023-04-16T01:14:20;8.90;99.90
10660;DHT22;5378;53.206;13.316;2023-04-16T01:17:07;8.80;99.90
10660;DHT22;5378;53.206;13.316;2023-04-16T01:19:58;9.00;99.90
10660;DHT22;5378;53.206;13.316;2023-04-16T01:22:47;8.90;99.90
10660;DHT22;5378;53.206;13.316;2023-04-16T01:25:34;8.90;99.90
10660;DHT22;5378;53.206;13.316;2023-04-16T01:28:21;8.90;99.90
10660;DHT22;5378;53.206;13.316;2023-04-16T01:31:09;9.00;99.90
10660;DHT22;5378;53.206;13.316;2023-04-16T01:34:08;9.00;99.90
10660;DHT22;5378;53.206;13.316;2023-04-16T01:36:55;9.00;99.90
10660;DHT22;5378;53.206;13.316;2023-04-16T01:39:44;9.10;99.90
10660;DHT22;5378;53.206;13.316;2023-04-16T01:42:31;9.20;99.90
10660;DHT22;5378;53.206;13.316;2023-04-16T01:45:18;9.10;99.90
10660;DHT22;5378;53.206;13.316;2023-04-16T01:48:06;9.30;99.90
10660;DHT22;5378;53.206;13.316;2023-04-16T01:50:53;9.40;99.90
10660;DHT22;5378;53.206;13.316;2023-04-16T01:53:40;9.30;99.90
10660;DHT22;5378;53.206;13.316;2023-04-16T01:56:28;9.30;99.90
10660;DHT22;5378;53.206;13.316;2023-04-16T01:59:15;9.30;99.90
10660;DHT22;5378;53.206;13.316;2023-04-16T02:02:06;9.30;99.90
10660;DHT22;5378;53.206;13.316;2023-04-16T02:04:56;9.40;99.90
10660;DHT22;5378;53.206;13.316;2023-04-16T02:07:43;9.40;99.90
10660;DHT22;5378;53.206;13.316;2023-04-16T02:10:31;9.20;99.90
10660;DHT22;5378;53.206;13.316;2023-04-16T02:13:19;9.10;99.90
10660;DHT22;5378;53.206;13.316;2023-04-16T02:16:06;9.10;99.90
10660;DHT22;5378;53.206;13.316;2023-04-16T02:19:14;9.10;99.90
10660;DHT22;5378;53.206;13.316;2023-04-16T02:22:01;8.90;99.90
10660;DHT22;5378;53.206;13.316;2023-04-16T02:24:49;8.70;99.90
10660;DHT22;5378;53.206;13.316;2023-04-16T02:27:36;8.90;99.90
10660;DHT22;5378;53.206;13.316;2023-04-16T02:30:39;9.10;99.90
10660;DHT22;5378;53.206;13.316;2023-04-16T02:33:27;9.30;99.90
10660;DHT22;5378;53.206;13.316;2023-04-16T02:36:19;9.30;99.90
10660;DHT22;5378;53.206;13.316;2023-04-16T02:39:05;9.30;99.90
10660;DHT22;5378;53.206;13.316;2023-04-16T02:41:52;9.40;99.90
10660;DHT22;5378;53.206;13.316;2023-04-16T02:44:40;9.40;99.90
10660;DHT22;5378;53.206;13.316;2023-04-16T02:47:28;9.50;99.90
10660;DHT22;5378;53.206;13.316;2023-04-16T02:50:16;9.50;99.90
10660;DHT22;5378;53.206;13.316;2023-04-16T02:53:03;9.40;99.90
10660;DHT22;5378;53.206;13.316;2023-04-16T02:55:53;9.50;99.90
10660;DHT22;5378;53.206;13.316;2023-04-16T02:58:40;9.50;99.90
10660;DHT22;5378;53.206;13.316;2023-04-16T03:01:27;9.10;99.90
10660;DHT22;5378;53.206;13.316;2023-04-16T03:04:16;9.00;99.90
10660;DHT22;5378;53.206;13.316;2023-04-16T03:07:03;8.90;99.90
10660;DHT22;5378;53.206;13.316;2023-04-16T03:09:50;9.00;99.90
10660;DHT22;5378;53.206;13.316;2023-04-16T03:12:37;9.00;99.90
10660;DHT22;5378;53.206;13.316;2023-04-16T03:15:24;9.10;99.90
10660;DHT22;5378;53.206;13.316;2023-04-16T03:18:12;9.10;99.90
10660;DHT22;5378;53.206;13.316;2023-04-16T03:21:00;8.60;99.90
10660;DHT22;5378;53.206;13.316;2023-04-16T03:23:47;9.20;99.90
10660;DHT22;5378;53.206;13.316;2023-04-16T03:26:34;9.10;99.90
10660;DHT22;5378;53.206;13.316;2023-04-16T03:29:22;9.20;99.90
10660;DHT22;5378;53.206;13.316;2023-04-16T03:32:09;9.10;99.90
10660;DHT22;5378;53.206;13.316;2023-04-16T03:34:57;9.10;99.90
10660;DHT22;5378;53.206;13.316;2023-04-16T03:37:46;9.20;99.90
10660;DHT22;5378;53.206;13.316;2023-04-16T03:40:35;9.20;99.90
10660;DHT22;5378;53.206;13.316;2023-04-16T03:43:22;9.20;99.90
10660;DHT22;5378;53.206;13.316;2023-04-16T03:46:09;9.10;99.90
10660;DHT22;5378;53.206;13.316;2023-04-16T03:48:56;9.20;99.90
10660;DHT22;5378;53.206;13.316;2023-04-16T03:51:43;9.20;99.90
10660;DHT22;5378;53.206;13.316;2023-04-16T03:54:31;9.30;99.90
10660;DHT22;5378;53.206;13.316;2023-04-16T03:57:31;9.20;99.90
10660;DHT22;5378;53.206;13.316;2023-04-16T04:00:24;9.20;99.90
10660;DHT22;5378;53.206;13.316;2023-04-16T04:03:32;9.30;99.90
10660;DHT22;5378;53.206;13.316;2023-04-16T04:06:20;9.30;99.90
10660;DHT22;5378;53.206;13.316;2023-04-16T04:09:06;9.30;99.90
10660;DHT22;5378;53.206;13.316;2023-04-16T04:11:55;9.40;99.90
10660;DHT22;5378;53.206;13.316;2023-04-16T04:14:42;9.30;99.90
10660;DHT22;5378;53.206;13.316;2023-04-16T04:17:29;9.30;99.90
10660;DHT22;5378;53.206;13.316;2023-04-16T04:20:17;9.30;99.90
10660;DHT22;5378;53.206;13.316;2023-04-16T04:23:05;9.20;99.90
10660;DHT22;5378;53.206;13.316;2023-04-16T04:25:53;9.30;99.90
10660;DHT22;5378;53.206;13.316;2023-04-16T04:28:41;9.40;99.90
10660;DHT22;5378;53.206;13.316;2023-04-16T04:31:29;9.40;99.90
10660;DHT22;5378;53.206;13.316;2023-04-16T04:34:15;9.40;99.90
10660;DHT22;5378;53.206;13.316;2023-04-16T04:37:02;9.40;99.90
10660;DHT22;5378;53.206;13.316;2023-04-16T04:39:50;9.40;99.90
10660;DHT22;5378;53.206;13.316;2023-04-16T04:42:37;9.40;99.90
10660;DHT22;5378;53.206;13.316;2023-04-16T04:45:25;9.40;99.90
10660;DHT22;5378;53.206;13.316;2023-04-16T04:48:13;9.30;99.90
10660;DHT22;5378;53.206;13.316;2023-04-16T04:51:00;9.40;99.90
10660;DHT22;5378;53.206;13.316;2023-04-16T04:53:50;9.40;99.90
10660;DHT22;5378;53.206;13.316;2023-04-16T04:56:36;9.20;99.90
10660;DHT22;5378;53.206;13.316;2023-04-16T04:59:23;9.30;99.90
10660;DHT22;5378;53.206;13.316;2023-04-16T05:02:12;9.40;99.90
10660;DHT22;5378;53.206;13.316;2023-04-16T05:04:59;9.40;99.90
10660;DHT22;5378;53.206;13.316;2023-04-16T05:07:46;9.40;99.90
10660;DHT22;5378;53.206;13.316;2023-04-16T05:10:33;9.20;99.90
10660;DHT22;5378;53.206;13.316;2023-04-16T05:13:20;9.20;99.90
10660;DHT22;5378;53.206;13.316;2023-04-16T05:16:07;9.10;99.90
10660;DHT22;5378;53.206;13.316;2023-04-16T05:18:56;9.00;99.90
10660;DHT22;5378;53.206;13.316;2023-04-16T05:21:43;8.90;99.90
10660;DHT22;5378;53.206;13.316;2023-04-16T05:24:30;9.00;99.90
10660;DHT22;5378;53.206;13.316;2023-04-16T05:27:17;9.00;99.90
10660;DHT22;5378;53.206;13.316;2023-04-16T05:30:05;9.20;99.90
10660;DHT22;5378;53.206;13.316;2023-04-16T05:32:52;9.20;99.90
10660;DHT22;5378;53.206;13.316;2023-04-16T05:35:41;9.40;99.90
10660;DHT22;5378;53.206;13.316;2023-04-16T05:38:28;9.50;99.90
10660;DHT22;5378;53.206;13.316;2023-04-16T05:41:15;9.50;99.90
10660;DHT22;5378;53.206;13.316;2023-04-16T05:44:02;9.40;99.90
10660;DHT22;5378;53.206;13.316;2023-04-16T05:46:49;9.50;99.90
10660;DHT22;5378;53.206;13.316;2023-04-16T05:49:36;9.40;99.90
10660;DHT22;5378;53.206;13.316;2023-04-16T05:52:24;9.20;99.90
10660;DHT22;5378;53.206;13.316;2023-04-16T05:55:11;9.10;99.90
10660;DHT22;5378;53.206;13.316;2023-04-16T05:57:58;9.00;99.90
10660;DHT22;5378;53.206;13.316;2023-04-16T06:00:46;9.00;99.90
10660;DHT22;5378;53.206;13.316;2023-04-16T06:03:33;9.10;99.90
10660;DHT22;5378;53.206;13.316;2023-04-16T06:06:20;9.10;99.90
10660;DHT22;5378;53.206;13.316;2023-04-16T06:09:08;9.10;99.90
10660;DHT22;5378;53.206;13.316;2023-04-16T06:11:56;9.30;99.90
10660;DHT22;5378;53.206;13.316;2023-04-16T06:14:43;9.40;99.90
10660;DHT22;5378;53.206;13.316;2023-04-16T06:17:30;9.50;99.90
10660;DHT22;5378;53.206;13.316;2023-04-16T06:20:17;9.60;99.90
10660;DHT22;5378;53.206;13.316;2023-04-16T06:23:04;9.60;99.90
10660;DHT22;5378;53.206;13.316;2023-04-16T06:25:52;9.60;99.90
10660;DHT22;5378;53.206;13.316;2023-04-16T06:28:39;9.70;99.90
10660;DHT22;5378;53.206;13.316;2023-04-16T06:31:26;9.60;99.90
10660;DHT22;5378;53.206;13.316;2023-04-16T06:34:13;9.60;99.90
10660;DHT22;5378;53.206;13.316;2023-04-16T06:37:01;9.80;99.90
10660;DHT22;5378;53.206;13.316;2023-04-16T06:39:48;9.80;99.90
10660;DHT22;5378;53.206;13.316;2023-04-16T06:42:36;9.70;99.90
10660;DHT22;5378;53.206;13.316;2023-04-16T06:45:23;9.70;99.90
10660;DHT22;5378;53.206;13.316;2023-04-16T06:48:10;9.70;99.90
10660;DHT22;5378;53.206;13.316;2023-04-16T06:50:57;9.70;99.90
10660;DHT22;5378;53.206;13.316;2023-04-16T06:53:44;9.60;99.90
10660;DHT22;5378;53.206;13.316;2023-04-16T06:56:31;9.60;99.90
10660;DHT22;5378;53.206;13.316;2023-04-16T06:59:19;9.70;99.90
10660;DHT22;5378;53.206;13.316;2023-04-16T07:02:07;9.90;99.90
10660;DHT22;5378;53.206;13.316;2023-04-16T07:04:55;9.80;99.90
10660;DHT22;5378;53.206;13.316;2023-04-16T07:07:42;9.80;99.90
10660;DHT22;5378;53.206;13.316;2023-04-16T07:10:30;9.90;99.90
10660;DHT22;5378;53.206;13.316;2023-04-16T07:13:17;10.00;99.90
10660;DHT22;5378;53.206;13.316;2023-04-16T07:16:06;10.10;99.90
10660;DHT22;5378;53.206;13.316;2023-04-16T07:18:53;10.20;99.90
10660;DHT22;5378;53.206;13.316;2023-04-16T07:21:40;10.30;99.90
10660;DHT22;5378;53.206;13.316;2023-04-16T07:24:28;10.30;99.90
10660;DHT22;5378;53.206;13.316;2023-04-16T07:27:15;10.40;99.90
10660;DHT22;5378;53.206;13.316;2023-04-16T07:30:03;10.40;99.90
10660;DHT22;5378;53.206;13.316;2023-04-16T07:32:52;10.50;99.90
10660;DHT22;5378;53.206;13.316;2023-04-16T07:35:40;10.80;99.90
10660;DHT22;5378;53.206;13.316;2023-04-16T07:38:27;10.90;99.90
10660;DHT22;5378;53.206;13.316;2023-04-16T07:41:14;11.10;99.90
10660;DHT22;5378;53.206;13.316;2023-04-16T07:44:02;11.40;99.90
10660;DHT22;5378;53.206;13.316;2023-04-16T07:46:49;11.50;99.90
10660;DHT22;5378;53.206;13.316;2023-04-16T07:49:38;11.70;99.90
10660;DHT22;5378;53.206;13.316;2023-04-16T07:52:25;11.90;99.90
10660;DHT22;5378;53.206;13.316;2023-04-16T07:55:12;12.00;99.90
10660;DHT22;5378;53.206;13.316;2023-04-16T07:57:59;12.20;99.90
10660;DHT22;5378;53.206;13.316;2023-04-16T08:00:47;12.20;99.90
10660;DHT22;5378;53.206;13.316;2023-04-16T08:03:35;12.30;99.90
10660;DHT22;5378;53.206;13.316;2023-04-16T08:06:24;12.30;99.90
10660;DHT22;5378;53.206;13.316;2023-04-16T08:09:12;12.00;99.90
10660;DHT22;5378;53.206;13.316;2023-04-16T08:12:00;11.80;99.90
10660;DHT22;5378;53.206;13.316;2023-04-16T08:14:47;11.50;99.90
10660;DHT22;5378;53.206;13.316;2023-04-16T08:17:34;11.60;99.90
10660;DHT22;5378;53.206;13.316;2023-04-16T08:20:22;11.80;99.90
10660;DHT22;5378;53.206;13.316;2023-04-16T08:23:11;11.80;99.90
10660;DHT22;5378;53.206;13.316;2023-04-16T08:25:57;11.70;99.90
10660;DHT22;5378;53.206;13.316;2023-04-16T08:28:44;11.90;99.90
10660;DHT22;5378;53.206;13.316;2023-04-16T08:31:32;12.10;99.90
10660;DHT22;5378;53.206;13.316;2023-04-16T08:34:19;12.20;99.90
10660;DHT22;5378;53.206;13.316;2023-04-16T08:37:07;12.20;99.90
10660;DHT22;5378;53.206;13.316;2023-04-16T08:39:55;12.00;99.90
10660;DHT22;5378;53.206;13.316;2023-04-16T08:42:47;11.90;99.90
10660;DHT22;5378;53.206;13.316;2023-04-16T08:45:35;11.90;99.90
10660;DHT22;5378;53.206;13.316;2023-04-16T08:48:23;11.90;99.90
10660;DHT22;5378;53.206;13.316;2023-04-16T08:51:11;11.80;99.90
10660;DHT22;5378;53.206;13.316;2023-04-16T08:54:02;11.90;99.90
10660;DHT22;5378;53.206;13.316;2023-04-16T08:56:51;12.00;99.90
10660;DHT22;5378;53.206;13.316;2023-04-16T08:59:39;11.90;99.90
10660;DHT22;5378;53.206;13.316;2023-04-16T09:02:28;11.70;99.90
10660;DHT22;5378;53.206;13.316;2023-04-16T09:05:16;11.60;99.90
10660;DHT22;5378;53.206;13.316;2023-04-16T09:08:05;11.70;99.90
10660;DHT22;5378;53.206;13.316;2023-04-16T09:10:53;11.80;99.90
10660;DHT22;5378;53.206;13.316;2023-04-16T09:13:42;12.00;99.90
10660;DHT22;5378;53.206;13.316;2023-04-16T09:16:32;12.10;99.90
10660;DHT22;5378;53.206;13.316;2023-04-16T09:19:20;12.10;99.90
10660;DHT22;5378;53.206;13.316;2023-04-16T09:22:07;11.80;99.90
10660;DHT22;5378;53.206;13.316;2023-04-16T09:24:54;11.60;99.90
10660;DHT22;5378;53.206;13.316;2023-04-16T09:27:41;11.60;99.90
10660;DHT22;5378;53.206;13.316;2023-04-16T09:30:31;11.60;99.90
10660;DHT22;5378;53.206;13.316;2023-04-16T09:33:20;11.50;99.90
10660;DHT22;5378;53.206;13.316;2023-04-16T09:36:08;11.20;99.90
10660;DHT22;5378;53.206;13.316;2023-04-16T09:38:56;11.30;99.90
10660;DHT22;5378;53.206;13.316;2023-04-16T09:41:42;11.40;99.90
10660;DHT22;5378;53.206;13.316;2023-04-16T09:44:34;11.40;99.90
10660;DHT22;5378;53.206;13.316;2023-04-16T09:47:25;11.40;99.90
10660;DHT22;5378;53.206;13.316;2023-04-16T09:50:14;11.50;99.90
10660;DHT22;5378;53.206;13.316;2023-04-16T09:53:03;11.50;99.90
10660;DHT22;5378;53.206;13.316;2023-04-16T09:55:49;11.50;99.90
10660;DHT22;5378;53.206;13.316;2023-04-16T09:58:36;11.50;99.90
10660;DHT22;5378;53.206;13.316;2023-04-16T10:01:24;11.70;99.90
10660;DHT22;5378;53.206;13.316;2023-04-16T10:04:12;11.90;99.90
10660;DHT22;5378;53.206;13.316;2023-04-16T10:07:04;12.00;99.90
10660;DHT22;5378;53.206;13.316;2023-04-16T10:09:51;12.20;99.90
10660;DHT22;5378;53.206;13.316;2023-04-16T10:12:38;12.30;99.90
10660;DHT22;5378;53.206;13.316;2023-04-16T10:15:26;12.50;99.90
10660;DHT22;5378;53.206;13.316;2023-04-16T10:18:14;12.40;99.90
10660;DHT22;5378;53.206;13.316;2023-04-16T10:21:03;12.10;99.90
10660;DHT22;5378;53.206;13.316;2023-04-16T10:23:51;12.00;99.90
10660;DHT22;5378;53.206;13.316;2023-04-16T10:26:40;11.90;99.90
10660;DHT22;5378;53.206;13.316;2023-04-16T10:29:29;11.60;99.90
10660;DHT22;5378;53.206;13.316;2023-04-16T10:32:17;11.70;99.90
10660;DHT22;5378;53.206;13.316;2023-04-16T10:35:07;11.70;99.90
10660;DHT22;5378;53.206;13.316;2023-04-16T10:37:56;11.60;99.90
10660;DHT22;5378;53.206;13.316;2023-04-16T10:40:44;11.50;99.90
10660;DHT22;5378;53.206;13.316;2023-04-16T10:43:36;11.60;99.90
10660;DHT22;5378;53.206;13.316;2023-04-16T10:46:25;11.60;99.90
10660;DHT22;5378;53.206;13.316;2023-04-16T10:49:17;11.70;99.90
10660;DHT22;5378;53.206;13.316;2023-04-16T10:52:09;12.00;99.90
10660;DHT22;5378;53.206;13.316;2023-04-16T10:54:58;12.20;99.90
10660;DHT22;5378;53.206;13.316;2023-04-16T10:57:48;12.60;99.90
10660;DHT22;5378;53.206;13.316;2023-04-16T11:00:48;13.10;99.90
10660;DHT22;5378;53.206;13.316;2023-04-16T11:03:35;13.50;99.90
10660;DHT22;5378;53.206;13.316;2023-04-16T11:06:24;13.80;99.90
10660;DHT22;5378;53.206;13.316;2023-04-16T11:09:42;13.80;99.90
10660;DHT22;5378;53.206;13.316;2023-04-16T11:12:34;13.10;99.90
10660;DHT22;5378;53.206;13.316;2023-04-16T11:15:22;12.60;99.90
10660;DHT22;5378;53.206;13.316;2023-04-16T11:18:18;12.60;99.90
10660;DHT22;5378;53.206;13.316;2023-04-16T11:21:07;12.40;99.90
10660;DHT22;5378;53.206;13.316;2023-04-16T11:23:56;12.30;99.90
10660;DHT22;5378;53.206;13.316;2023-04-16T11:26:43;12.20;99.90
10660;DHT22;5378;53.206;13.316;2023-04-16T11:29:32;12.30;99.90
10660;DHT22;5378;53.206;13.316;2023-04-16T11:32:19;12.40;99.90
10660;DHT22;5378;53.206;13.316;2023-04-16T11:35:13;12.60;99.90
10660;DHT22;5378;53.206;13.316;2023-04-16T11:38:01;12.90;99.90
10660;DHT22;5378;53.206;13.316;2023-04-16T11:40:49;12.90;99.90
10660;DHT22;5378;53.206;13.316;2023-04-16T11:43:38;13.20;99.90
10660;DHT22;5378;53.206;13.316;2023-04-16T11:46:38;13.30;99.90
10660;DHT22;5378;53.206;13.316;2023-04-16T11:49:26;13.20;99.90
10660;DHT22;5378;53.206;13.316;2023-04-16T11:52:14;13.10;99.90
10660;DHT22;5378;53.206;13.316;2023-04-16T11:55:11;12.90;99.90
10660;DHT22;5378;53.206;13.316;2023-04-16T11:58:10;12.60;99.90
10660;DHT22;5378;53.206;13.316;2023-04-16T12:00:57;12.40;99.90
10660;DHT22;5378;53.206;13.316;2023-04-16T12:03:46;12.30;99.90
10660;DHT22;5378;53.206;13.316;2023-04-16T12:06:34;12.10;99.90
10660;DHT22;5378;53.206;13.316;2023-04-16T12:09:21;12.30;99.90
10660;DHT22;5378;53.206;13.316;2023-04-16T12:12:25;12.50;99.90
10660;DHT22;5378;53.206;13.316;2023-04-16T12:15:12;12.60;99.90
10660;DHT22;5378;53.206;13.316;2023-04-16T12:18:05;12.60;99.90
10660;DHT22;5378;53.206;13.316;2023-04-16T12:20:53;12.90;99.90
10660;DHT22;5378;53.206;13.316;2023-04-16T12:23:41;13.00;99.90
10660;DHT22;5378;53.206;13.316;2023-04-16T12:26:36;13.20;99.90
10660;DHT22;5378;53.206;13.316;2023-04-16T12:29:24;13.40;99.90
10660;DHT22;5378;53.206;13.316;2023-04-16T12:32:20;13.50;99.90
10660;DHT22;5378;53.206;13.316;2023-04-16T12:35:08;13.30;99.90
10660;DHT22;5378;53.206;13.316;2023-04-16T12:37:56;13.00;99.90
10660;DHT22;5378;53.206;13.316;2023-04-16T12:40:44;12.90;99.90
10660;DHT22;5378;53.206;13.316;2023-04-16T12:43:31;12.70;99.90
10660;DHT22;5378;53.206;13.316;2023-04-16T12:46:18;12.50;99.90
10660;DHT22;5378;53.206;13.316;2023-04-16T12:49:05;12.70;99.90
10660;DHT22;5378;53.206;13.316;2023-04-16T12:51:52;12.50;99.90
10660;DHT22;5378;53.206;13.316;2023-04-16T12:54:40;12.50;99.90
10660;DHT22;5378;53.206;13.316;2023-04-16T12:57:27;12.50;99.90
10660;DHT22;5378;53.206;13.316;2023-04-16T13:00:15;12.50;99.90
10660;DHT22;5378;53.206;13.316;2023-04-16T13:03:02;12.30;99.90
10660;DHT22;5378;53.206;13.316;2023-04-16T13:05:49;12.30;99.90
10660;DHT22;5378;53.206;13.316;2023-04-16T13:08:36;12.40;99.90
10660;DHT22;5378;53.206;13.316;2023-04-16T13:11:25;12.50;99.90
10660;DHT22;5378;53.206;13.316;2023-04-16T13:14:11;12.60;99.90
10660;DHT22;5378;53.206;13.316;2023-04-16T13:16:58;12.90;99.90
10660;DHT22;5378;53.206;13.316;2023-04-16T13:19:46;12.80;99.90
10660;DHT22;5378;53.206;13.316;2023-04-16T13:22:32;12.80;99.90
10660;DHT22;5378;53.206;13.316;2023-04-16T13:25:20;12.80;99.90
10660;DHT22;5378;53.206;13.316;2023-04-16T13:28:09;12.80;99.90
10660;DHT22;5378;53.206;13.316;2023-04-16T13:30:56;12.50;99.90
10660;DHT22;5378;53.206;13.316;2023-04-16T13:33:43;12.20;99.90
10660;DHT22;5378;53.206;13.316;2023-04-16T13:36:30;12.10;99.90
10660;DHT22;5378;53.206;13.316;2023-04-16T13:39:18;12.20;99.90
10660;DHT22;5378;53.206;13.316;2023-04-16T13:42:06;12.40;99.90
10660;DHT22;5378;53.206;13.316;2023-04-16T13:44:54;12.60;99.90
10660;DHT22;5378;53.206;13.316;2023-04-16T13:47:42;12.60;99.90
10660;DHT22;5378;53.206;13.316;2023-04-16T13:50:30;12.50;99.90
10660;DHT22;5378;53.206;13.316;2023-04-16T13:53:16;12.80;99.90
10660;DHT22;5378;53.206;13.316;2023-04-16T13:56:04;12.80;99.90
10660;DHT22;5378;53.206;13.316;2023-04-16T13:58:51;12.70;99.90
10660;DHT22;5378;53.206;13.316;2023-04-16T14:01:40;12.70;99.90
10660;DHT22;5378;53.206;13.316;2023-04-16T14:04:27;12.90;99.90
10660;DHT22;5378;53.206;13.316;2023-04-16T14:07:14;13.20;99.90
10660;DHT22;5378;53.206;13.316;2023-04-16T14:10:02;13.20;99.90
10660;DHT22;5378;53.206;13.316;2023-04-16T14:12:49;12.80;99.90
10660;DHT22;5378;53.206;13.316;2023-04-16T14:15:36;12.70;99.90
10660;DHT22;5378;53.206;13.316;2023-04-16T14:18:25;12.90;99.90
10660;DHT22;5378;53.206;13.316;2023-04-16T14:21:12;12.60;99.90
10660;DHT22;5378;53.206;13.316;2023-04-16T14:23:59;12.20;99.90
10660;DHT22;5378;53.206;13.316;2023-04-16T14:26:46;12.10;99.90
10660;DHT22;5378;53.206;13.316;2023-04-16T14:29:34;12.10;99.90
10660;DHT22;5378;53.206;13.316;2023-04-16T14:32:21;12.50;99.90
10660;DHT22;5378;53.206;13.316;2023-04-16T14:35:09;12.60;99.90
10660;DHT22;5378;53.206;13.316;2023-04-16T14:37:56;12.60;99.90
10660;DHT22;5378;53.206;13.316;2023-04-16T14:40:44;12.80;99.90
10660;DHT22;5378;53.206;13.316;2023-04-16T14:43:31;13.30;99.90
10660;DHT22;5378;53.206;13.316;2023-04-16T14:46:17;13.50;99.90
10660;DHT22;5378;53.206;13.316;2023-04-16T14:49:05;13.60;99.90
10660;DHT22;5378;53.206;13.316;2023-04-16T14:51:53;13.40;99.90
10660;DHT22;5378;53.206;13.316;2023-04-16T14:54:41;13.20;99.90
10660;DHT22;5378;53.206;13.316;2023-04-16T14:57:28;12.90;99.90
10660;DHT22;5378;53.206;13.316;2023-04-16T15:00:16;12.80;99.90
10660;DHT22;5378;53.206;13.316;2023-04-16T15:03:04;12.60;99.90
10660;DHT22;5378;53.206;13.316;2023-04-16T15:05:51;12.40;99.90
10660;DHT22;5378;53.206;13.316;2023-04-16T15:08:42;12.40;99.90
10660;DHT22;5378;53.206;13.316;2023-04-16T15:11:29;12.40;99.90
10660;DHT22;5378;53.206;13.316;2023-04-16T15:14:16;12.30;99.90
10660;DHT22;5378;53.206;13.316;2023-04-16T15:17:03;12.30;99.90
10660;DHT22;5378;53.206;13.316;2023-04-16T15:19:50;12.60;99.90
10660;DHT22;5378;53.206;13.316;2023-04-16T15:22:38;12.70;99.90
10660;DHT22;5378;53.206;13.316;2023-04-16T15:25:27;12.50;99.90
10660;DHT22;5378;53.206;13.316;2023-04-16T15:28:14;12.20;99.90
10660;DHT22;5378;53.206;13.316;2023-04-16T15:31:01;11.90;99.90
10660;DHT22;5378;53.206;13.316;2023-04-16T15:33:49;11.60;99.90
10660;DHT22;5378;53.206;13.316;2023-04-16T15:36:35;11.50;99.90
10660;DHT22;5378;53.206;13.316;2023-04-16T15:39:22;11.50;99.90
10660;DHT22;5378;53.206;13.316;2023-04-16T15:42:10;11.50;99.90
10660;DHT22;5378;53.206;13.316;2023-04-16T15:44:57;11.30;99.90
10660;DHT22;5378;53.206;13.316;2023-04-16T15:47:44;11.30;99.90
10660;DHT22;5378;53.206;13.316;2023-04-16T15:50:35;11.20;99.90
10660;DHT22;5378;53.206;13.316;2023-04-16T15:53:22;11.20;99.90
10660;DHT22;5378;53.206;13.316;2023-04-16T15:56:10;11.20;99.90
10660;DHT22;5378;53.206;13.316;2023-04-16T15:58:58;11.10;99.90
10660;DHT22;5378;53.206;13.316;2023-04-16T16:01:45;11.20;99.90
10660;DHT22;5378;53.206;13.316;2023-04-16T16:04:32;11.20;99.90
10660;DHT22;5378;53.206;13.316;2023-04-16T16:07:19;11.00;99.90
10660;DHT22;5378;53.206;13.316;2023-04-16T16:10:08;10.90;99.90
10660;DHT22;5378;53.206;13.316;2023-04-16T16:12:55;10.90;99.90
10660;DHT22;5378;53.206;13.316;2023-04-16T16:15:47;11.00;99.90
10660;DHT22;5378;53.206;13.316;2023-04-16T16:18:35;11.00;99.90
10660;DHT22;5378;53.206;13.316;2023-04-16T16:21:22;11.00;99.90
10660;DHT22;5378;53.206;13.316;2023-04-16T16:24:09;10.90;99.90
10660;DHT22;5378;53.206;13.316;2023-04-16T16:26:56;10.80;99.90
10660;DHT22;5378;53.206;13.316;2023-04-16T16:29:43;10.50;99.90
10660;DHT22;5378;53.206;13.316;2023-04-16T16:32:32;10.40;99.90
10660;DHT22;5378;53.206;13.316;2023-04-16T16:35:19;10.30;99.90
10660;DHT22;5378;53.206;13.316;2023-04-16T16:38:06;10.40;99.90
10660;DHT22;5378;53.206;13.316;2023-04-16T16:40:53;10.30;99.90
10660;DHT22;5378;53.206;13.316;2023-04-16T16:43:40;10.10;99.90
10660;DHT22;5378;53.206;13.316;2023-04-16T16:46:27;9.90;99.90
10660;DHT22;5378;53.206;13.316;2023-04-16T16:49:16;9.90;99.90
10660;DHT22;5378;53.206;13.316;2023-04-16T16:52:03;9.80;99.90
10660;DHT22;5378;53.206;13.316;2023-04-16T16:54:51;9.80;99.90
10660;DHT22;5378;53.206;13.316;2023-04-16T16:57:39;9.80;99.90
10660;DHT22;5378;53.206;13.316;2023-04-16T17:00:26;9.90;99.90
10660;DHT22;5378;53.206;13.316;2023-04-16T17:03:13;9.80;99.90
10660;DHT22;5378;53.206;13.316;2023-04-16T17:06:01;9.90;99.90
10660;DHT22;5378;53.206;13.316;2023-04-16T17:08:49;9.90;99.90
10660;DHT22;5378;53.206;13.316;2023-04-16T17:11:36;9.90;99.90
10660;DHT22;5378;53.206;13.316;2023-04-16T17:14:23;9.80;99.90
10660;DHT22;5378;53.206;13.316;2023-04-16T17:17:10;9.80;99.90
10660;DHT22;5378;53.206;13.316;2023-04-16T17:19:57;9.80;99.90
10660;DHT22;5378;53.206;13.316;2023-04-16T17:22:47;9.90;99.90
10660;DHT22;5378;53.206;13.316;2023-04-16T17:25:34;9.90;99.90
10660;DHT22;5378;53.206;13.316;2023-04-16T17:28:21;10.10;99.90
10660;DHT22;5378;53.206;13.316;2023-04-16T17:31:08;10.10;99.90
10660;DHT22;5378;53.206;13.316;2023-04-16T17:33:56;10.00;99.90
10660;DHT22;5378;53.206;13.316;2023-04-16T17:36:44;9.90;99.90
10660;DHT22;5378;53.206;13.316;2023-04-16T17:39:34;9.80;99.90
10660;DHT22;5378;53.206;13.316;2023-04-16T17:42:21;9.90;99.90
10660;DHT22;5378;53.206;13.316;2023-04-16T17:45:10;9.80;99.90
10660;DHT22;5378;53.206;13.316;2023-04-16T17:47:57;9.90;99.90
10660;DHT22;5378;53.206;13.316;2023-04-16T17:50:44;10.10;99.90